Time;durP1;ratioP1;P1;durP2;ratioP2;P2;SDS_P1;SDS_P2;PMS_P1;PMS_P2;Temp;Humidity;BMP_temperature;BMP_pressure;BME280_temperature;BME280_humidity;BME280_pressure;Samples;Min_cycle;Max_cycle;Signal;HPM_P1;HPM_P2
2021/04/07 00:00:42;;;;;;;19.63;12.00;;;;;;;;;;5074418;28;20174;-79
2021/04/07 00:03:08;;;;;;;18.60;11.97;;;;;;;;;;5074918;28;20178;-79
2021/04/07 00:05:36;;;;;;;16.70;10.33;;;;;;;;;;5075134;28;20200;-79
2021/04/07 00:08:02;;;;;;;18.50;10.67;;;;;;;;;;5074828;28;20210;-79
2021/04/07 00:10:30;;;;;;;16.10;10.20;;;;;;;;;;5075077;28;20175;-79
2021/04/07 00:12:56;;;;;;;20.63;11.27;;;;;;;;;;5074686;28;20711;-79
2021/04/07 00:15:22;;;;;;;17.67;10.23;;;;;;;;;;5074462;28;20172;-79
2021/04/07 00:17:48;;;;;;;17.27;10.70;;;;;;;;;;5074243;28;20209;-79
2021/04/07 00:20:14;;;;;;;20.40;10.80;;;;;;;;;;5074072;28;20171;-79
2021/04/07 00:22:40;;;;;;;19.80;10.93;;;;;;;;;;5074494;28;20670;-79
2021/04/07 00:25:06;;;;;;;17.67;10.00;;;;;;;;;;5074327;28;20258;-78
2021/04/07 00:27:32;;;;;;;17.17;10.83;;;;;;;;;;5073968;28;20688;-79
2021/04/07 00:29:57;;;;;;;20.93;10.70;;;;;;;;;;5074237;28;20606;-79
2021/04/07 00:32:22;;;;;;;15.33;10.20;;;;;;;;;;5074219;28;20178;-79
2021/04/07 00:34:48;;;;;;;18.20;10.27;;;;;;;;;;5074696;28;20265;-79
2021/04/07 00:37:13;;;;;;;16.40;10.07;;;;;;;;;;5074094;28;20561;-79
2021/04/07 00:39:38;;;;;;;20.07;10.93;;;;;;;;;;5074237;28;20199;-79
2021/04/07 00:42:04;;;;;;;18.20;10.57;;;;;;;;;;5072963;28;20217;-79
2021/04/07 00:44:30;;;;;;;20.20;10.87;;;;;;;;;;5074429;28;20629;-79
2021/04/07 00:46:55;;;;;;;24.57;12.07;;;;;;;;;;5074236;28;20526;-79
2021/04/07 00:49:20;;;;;;;25.87;13.47;;;;;;;;;;5074005;28;20642;-79
2021/04/07 00:51:48;;;;;;;21.60;11.93;;;;;;;;;;5074225;28;20171;-78
2021/04/07 00:54:14;;;;;;;26.63;12.10;;;;;;;;;;5073412;28;20537;-79
2021/04/07 00:56:39;;;;;;;21.93;11.77;;;;;;;;;;5073827;28;20209;-79
2021/04/07 00:59:05;;;;;;;18.80;11.53;;;;;;;;;;5073659;28;20750;-79
2021/04/07 01:01:31;;;;;;;17.77;11.33;;;;;;;;;;5073570;28;20570;-79
2021/04/07 01:03:56;;;;;;;17.73;10.53;;;;;;;;;;5074652;28;20533;-79
2021/04/07 01:06:22;;;;;;;20.47;11.37;;;;;;;;;;5074035;28;20217;-79
2021/04/07 01:08:47;;;;;;;17.33;10.97;;;;;;;;;;5074093;28;20202;-79
2021/04/07 01:11:12;;;;;;;17.13;11.00;;;;;;;;;;5073795;28;20181;-78
2021/04/07 01:13:38;;;;;;;22.77;11.50;;;;;;;;;;5073278;28;20685;-79
2021/04/07 01:16:03;;;;;;;21.80;11.57;;;;;;;;;;5074178;28;20173;-79
2021/04/07 01:18:31;;;;;;;18.97;10.60;;;;;;;;;;5073640;28;20281;-79
2021/04/07 01:20:56;;;;;;;21.47;11.10;;;;;;;;;;5073727;28;20521;-79
2021/04/07 01:23:22;;;;;;;19.43;11.63;;;;;;;;;;5073909;28;20181;-79
2021/04/07 01:25:47;;;;;;;17.13;10.17;;;;;;;;;;5073644;28;20174;-79
2021/04/07 01:28:13;;;;;;;17.90;10.70;;;;;;;;;;5073628;28;20635;-79
2021/04/07 01:30:47;;;;;;;20.53;12.47;;;;;;;;;;5077608;28;20640;-78
2021/04/07 01:33:19;;;;;;;20.97;11.93;;;;;;;;;;5078206;28;20170;-79
2021/04/07 01:35:44;;;;;;;18.07;10.97;;;;;;;;;;5077291;28;20308;-79
2021/04/07 01:38:10;;;;;;;19.20;10.87;;;;;;;;;;5077398;28;20278;-79
2021/04/07 01:40:35;;;;;;;17.10;10.50;;;;;;;;;;5077192;28;20640;-79
2021/04/07 01:43:01;;;;;;;20.17;13.43;;;;;;;;;;5077115;28;20178;-79
2021/04/07 01:45:26;;;;;;;19.27;11.63;;;;;;;;;;5077295;28;20182;-79
2021/04/07 01:47:54;;;;;;;19.13;11.30;;;;;;;;;;5077038;28;20558;-79
2021/04/07 01:50:19;;;;;;;20.53;11.37;;;;;;;;;;5077045;28;20262;-79
2021/04/07 01:52:45;;;;;;;18.73;11.40;;;;;;;;;;5076887;28;20702;-79
2021/04/07 01:55:10;;;;;;;18.63;11.57;;;;;;;;;;5077151;28;20685;-79
2021/04/07 01:57:36;;;;;;;19.40;11.47;;;;;;;;;;5076957;28;20226;-79
2021/04/07 02:00:01;;;;;;;18.10;11.73;;;;;;;;;;5077033;28;20166;-79
2021/04/07 02:02:27;;;;;;;17.27;10.90;;;;;;;;;;5076718;28;20174;-79
2021/04/07 02:04:52;;;;;;;20.57;11.10;;;;;;;;;;5076847;28;20195;-79
2021/04/07 02:07:17;;;;;;;19.73;11.20;;;;;;;;;;5077147;28;20179;-79
2021/04/07 02:09:43;;;;;;;24.80;12.43;;;;;;;;;;5077174;28;20171;-79
2021/04/07 02:12:08;;;;;;;18.17;11.07;;;;;;;;;;5076953;28;20309;-79
2021/04/07 02:14:34;;;;;;;18.37;10.93;;;;;;;;;;5076544;28;20174;-79
2021/04/07 02:17:00;;;;;;;19.07;11.63;;;;;;;;;;5076593;28;20297;-79
2021/04/07 02:19:26;;;;;;;22.20;12.30;;;;;;;;;;5076682;28;20166;-79
2021/04/07 02:22:10;;;;;;;19.73;11.23;;;;;;;;;;5077344;28;20178;-79
2021/04/07 02:24:37;;;;;;;19.27;11.67;;;;;;;;;;5076630;28;20601;-79
2021/04/07 02:27:12;;;;;;;23.00;12.07;;;;;;;;;;5075973;28;20183;-78
2021/04/07 02:29:38;;;;;;;19.17;11.40;;;;;;;;;;5076890;28;20605;-79
2021/04/07 02:32:04;;;;;;;21.23;11.77;;;;;;;;;;5076176;28;20631;-78
2021/04/07 02:34:29;;;;;;;20.77;12.07;;;;;;;;;;5076410;28;20190;-79
2021/04/07 02:36:54;;;;;;;19.13;12.27;;;;;;;;;;5076105;28;20289;-78
2021/04/07 02:39:19;;;;;;;20.57;12.57;;;;;;;;;;5075704;28;20206;-78
2021/04/07 02:41:45;;;;;;;24.87;12.93;;;;;;;;;;5076014;28;20176;-78
2021/04/07 02:44:10;;;;;;;23.20;12.57;;;;;;;;;;5076599;28;20181;-78
2021/04/07 02:46:35;;;;;;;22.07;12.47;;;;;;;;;;5076551;28;20281;-78
2021/04/07 02:49:01;;;;;;;18.53;12.03;;;;;;;;;;5076406;28;20170;-78
2021/04/07 02:51:26;;;;;;;18.20;11.83;;;;;;;;;;5075890;28;20174;-78
2021/04/07 02:53:51;;;;;;;20.77;11.17;;;;;;;;;;5076468;28;20204;-79
2021/04/07 02:56:17;;;;;;;18.90;12.13;;;;;;;;;;5076223;28;20206;-78
2021/04/07 02:58:42;;;;;;;19.50;11.50;;;;;;;;;;5075988;28;20262;-79
2021/04/07 03:01:07;;;;;;;20.97;12.80;;;;;;;;;;5075628;28;20174;-79
2021/04/07 03:03:32;;;;;;;25.47;13.27;;;;;;;;;;5076026;28;20175;-79
2021/04/07 03:05:58;;;;;;;20.60;13.40;;;;;;;;;;5075972;28;20202;-79
2021/04/07 03:08:23;;;;;;;23.30;13.37;;;;;;;;;;5075725;28;20616;-79
2021/04/07 03:10:48;;;;;;;24.67;13.50;;;;;;;;;;5075500;28;20197;-78
2021/04/07 03:13:14;;;;;;;22.90;13.20;;;;;;;;;;5075955;28;20232;-78
2021/04/07 03:15:39;;;;;;;23.70;12.67;;;;;;;;;;5075637;28;20232;-78
2021/04/07 03:18:04;;;;;;;23.50;14.10;;;;;;;;;;5075834;28;20341;-78
2021/04/07 03:20:30;;;;;;;27.90;14.17;;;;;;;;;;5075603;28;20171;-78
2021/04/07 03:22:55;;;;;;;26.33;14.47;;;;;;;;;;5075311;28;20196;-78
2021/04/07 03:25:20;;;;;;;31.37;14.67;;;;;;;;;;5076029;28;20251;-79
2021/04/07 03:27:46;;;;;;;26.73;14.77;;;;;;;;;;5075379;28;20171;-79
2021/04/07 03:30:12;;;;;;;23.53;13.70;;;;;;;;;;5075859;28;20186;-79
2021/04/07 03:32:37;;;;;;;27.57;14.97;;;;;;;;;;5075208;28;20171;-79
2021/04/07 03:35:03;;;;;;;29.50;16.17;;;;;;;;;;5075250;28;20174;-79
2021/04/07 03:37:28;;;;;;;28.03;15.40;;;;;;;;;;5075586;28;20678;-79
2021/04/07 03:39:54;;;;;;;30.87;15.50;;;;;;;;;;5075234;28;20216;-79
2021/04/07 03:42:19;;;;;;;29.97;17.17;;;;;;;;;;5075647;28;20219;-79
2021/04/07 03:44:44;;;;;;;35.73;17.13;;;;;;;;;;5074562;28;20261;-79
2021/04/07 03:47:09;;;;;;;34.97;18.13;;;;;;;;;;5075000;28;20178;-79
2021/04/07 03:49:35;;;;;;;33.23;17.50;;;;;;;;;;5074957;28;20259;-79
2021/04/07 03:52:00;;;;;;;34.73;18.07;;;;;;;;;;5074228;28;20166;-79
2021/04/07 03:54:26;;;;;;;34.07;18.03;;;;;;;;;;5074947;28;20724;-79
2021/04/07 03:56:51;;;;;;;35.23;17.87;;;;;;;;;;5074844;28;20199;-79
2021/04/07 03:59:17;;;;;;;36.73;18.10;;;;;;;;;;5074758;28;20258;-79
2021/04/07 04:01:42;;;;;;;43.87;22.60;;;;;;;;;;5074479;28;20258;-79
2021/04/07 04:04:09;;;;;;;42.37;22.27;;;;;;;;;;5074867;28;20179;-79
2021/04/07 04:06:35;;;;;;;40.80;20.17;;;;;;;;;;5074720;28;20574;-79
2021/04/07 04:09:00;;;;;;;38.77;18.13;;;;;;;;;;5074345;28;20199;-79
2021/04/07 04:11:26;;;;;;;34.83;18.57;;;;;;;;;;5074353;28;20202;-79
2021/04/07 04:13:51;;;;;;;33.93;17.83;;;;;;;;;;5075167;28;20233;-78
2021/04/07 04:16:17;;;;;;;35.83;16.47;;;;;;;;;;5074093;28;20171;-79
2021/04/07 04:18:42;;;;;;;40.83;17.07;;;;;;;;;;5074967;28;20589;-78
2021/04/07 04:21:07;;;;;;;33.93;16.37;;;;;;;;;;5074918;28;20190;-79
2021/04/07 04:23:33;;;;;;;43.83;19.00;;;;;;;;;;5074637;28;20171;-78
2021/04/07 04:25:58;;;;;;;41.30;18.63;;;;;;;;;;5074602;28;20179;-78
2021/04/07 04:28:23;;;;;;;38.87;18.10;;;;;;;;;;5074117;28;20203;-79
2021/04/07 04:30:49;;;;;;;36.13;19.17;;;;;;;;;;5074287;28;20159;-79
2021/04/07 04:33:14;;;;;;;45.00;21.70;;;;;;;;;;5074297;28;20512;-78
2021/04/07 04:35:39;;;;;;;39.27;19.27;;;;;;;;;;5074301;28;20171;-78
2021/04/07 04:38:05;;;;;;;32.73;19.33;;;;;;;;;;5074341;28;20286;-79
2021/04/07 04:40:30;;;;;;;36.70;19.07;;;;;;;;;;5074445;28;20556;-78
2021/04/07 04:42:55;;;;;;;30.00;19.17;;;;;;;;;;5073821;28;20250;-79
2021/04/07 04:45:20;;;;;;;37.87;20.33;;;;;;;;;;5074122;28;20198;-79
2021/04/07 04:47:46;;;;;;;33.03;18.77;;;;;;;;;;5073832;28;20203;-78
2021/04/07 04:50:11;;;;;;;32.23;18.67;;;;;;;;;;5074138;28;20266;-79
2021/04/07 04:52:37;;;;;;;33.23;19.93;;;;;;;;;;5074240;28;20202;-79
2021/04/07 04:55:03;;;;;;;30.43;17.97;;;;;;;;;;5074202;28;20174;-79
2021/04/07 04:57:28;;;;;;;31.97;18.07;;;;;;;;;;5074173;28;20199;-79
2021/04/07 04:59:54;;;;;;;43.43;25.27;;;;;;;;;;5074231;28;20633;-79
2021/04/07 05:02:19;;;;;;;41.93;23.20;;;;;;;;;;5073067;28;20167;-79
2021/04/07 05:04:44;;;;;;;42.60;24.87;;;;;;;;;;5074111;28;20188;-79
2021/04/07 05:07:10;;;;;;;69.20;39.57;;;;;;;;;;5074155;28;20169;-79
2021/04/07 05:09:35;;;;;;;39.50;23.87;;;;;;;;;;5074053;28;20170;-79
2021/04/07 05:12:00;;;;;;;37.03;23.80;;;;;;;;;;5073516;28;20692;-79
2021/04/07 05:14:26;;;;;;;37.50;19.97;;;;;;;;;;5074065;28;20159;-79
2021/04/07 05:16:51;;;;;;;475.57;225.13;;;;;;;;;;5074173;28;20294;-79
2021/04/07 05:19:16;;;;;;;310.80;114.83;;;;;;;;;;5073738;28;20205;-79
2021/04/07 05:21:42;;;;;;;144.53;130.33;;;;;;;;;;5073745;28;20220;-79
2021/04/07 05:24:07;;;;;;;83.80;75.03;;;;;;;;;;5073420;28;20224;-78
2021/04/07 05:26:36;;;;;;;69.93;45.83;;;;;;;;;;5073696;28;20199;-78
2021/04/07 05:29:02;;;;;;;94.57;46.20;;;;;;;;;;5073586;28;20168;-78
2021/04/07 05:31:28;;;;;;;64.37;34.53;;;;;;;;;;5073571;28;20199;-78
2021/04/07 05:33:53;;;;;;;77.10;45.40;;;;;;;;;;5073557;28;20607;-78
2021/04/07 05:36:19;;;;;;;95.83;54.37;;;;;;;;;;5073716;28;20173;-79
2021/04/07 05:38:44;;;;;;;67.05;37.67;;;;;;;;;;5073286;28;20167;-79
2021/04/07 05:41:10;;;;;;;50.80;32.53;;;;;;;;;;5074053;28;20171;-79
2021/04/07 05:43:35;;;;;;;62.67;35.87;;;;;;;;;;5073814;28;20168;-80
2021/04/07 05:46:01;;;;;;;58.83;32.27;;;;;;;;;;5073467;28;20210;-77
2021/04/07 05:48:27;;;;;;;35.67;22.17;;;;;;;;;;5073469;28;20179;-80
2021/04/07 05:50:53;;;;;;;32.70;21.17;;;;;;;;;;5073416;28;20179;-78
2021/04/07 05:53:19;;;;;;;43.87;29.97;;;;;;;;;;5073438;28;20178;-80
2021/04/07 05:55:45;;;;;;;40.03;29.17;;;;;;;;;;5073385;28;20566;-79
2021/04/07 05:58:10;;;;;;;48.40;33.53;;;;;;;;;;5072927;28;20577;-79
2021/04/07 06:00:37;;;;;;;27.03;19.70;;;;;;;;;;5073364;28;20171;-79
2021/04/07 06:03:03;;;;;;;28.77;20.77;;;;;;;;;;5073024;28;20194;-79
2021/04/07 06:05:29;;;;;;;34.33;21.00;;;;;;;;;;5072843;28;20588;-79
2021/04/07 06:07:55;;;;;;;33.80;20.20;;;;;;;;;;5073502;28;20175;-78
2021/04/07 06:10:20;;;;;;;28.80;18.77;;;;;;;;;;5072988;28;20195;-78
2021/04/07 06:12:47;;;;;;;34.00;21.37;;;;;;;;;;5073267;28;20254;-80
2021/04/07 06:15:13;;;;;;;45.10;26.43;;;;;;;;;;5074319;28;20171;-78
2021/04/07 06:17:40;;;;;;;87.77;42.30;;;;;;;;;;5076357;28;20807;-78
2021/04/07 06:20:10;;;;;;;62.63;33.80;;;;;;;;;;5075794;28;20183;-78
2021/04/07 06:22:36;;;;;;;42.23;23.53;;;;;;;;;;5073246;28;20183;-79
2021/04/07 06:25:02;;;;;;;31.00;18.53;;;;;;;;;;5074893;28;20171;-79
2021/04/07 06:27:27;;;;;;;30.13;17.50;;;;;;;;;;5063842;28;20172;-79
2021/04/07 06:29:52;;;;;;;41.13;26.93;;;;;;;;;;5055867;28;20612;-79
2021/04/07 06:32:18;;;;;;;28.97;19.57;;;;;;;;;;5056905;28;20222;-79
2021/04/07 06:34:43;;;;;;;28.27;20.47;;;;;;;;;;5056726;28;20578;-79
2021/04/07 06:37:08;;;;;;;36.47;23.27;;;;;;;;;;5056048;28;20203;-79
2021/04/07 06:39:34;;;;;;;29.03;19.43;;;;;;;;;;5056664;28;20631;-79
2021/04/07 06:41:59;;;;;;;22.43;16.83;;;;;;;;;;5056427;28;20175;-79
2021/04/07 06:44:25;;;;;;;26.37;18.03;;;;;;;;;;5056562;28;20168;-79
2021/04/07 06:46:53;;;;;;;49.87;29.47;;;;;;;;;;5056159;28;20182;-79
2021/04/07 06:49:20;;;;;;;27.43;18.17;;;;;;;;;;5055867;28;20618;-79
2021/04/07 06:51:45;;;;;;;25.90;19.50;;;;;;;;;;5056443;28;20172;-79
2021/04/07 06:54:11;;;;;;;19.63;14.57;;;;;;;;;;5056629;28;20170;-79
2021/04/07 06:56:36;;;;;;;15.43;13.27;;;;;;;;;;5055980;28;20172;-79
2021/04/07 06:59:02;;;;;;;24.40;17.07;;;;;;;;;;5056023;28;20176;-79
2021/04/07 07:01:28;;;;;;;24.77;19.83;;;;;;;;;;5055686;28;20175;-79
2021/04/07 07:03:53;;;;;;;24.50;20.77;;;;;;;;;;5055631;28;20172;-79
2021/04/07 07:06:18;;;;;;;16.57;13.73;;;;;;;;;;5056124;28;20267;-79
2021/04/07 07:08:44;;;;;;;20.77;16.00;;;;;;;;;;5055579;28;20168;-79
2021/04/07 07:11:10;;;;;;;18.47;15.10;;;;;;;;;;5055851;28;20168;-79
2021/04/07 07:13:36;;;;;;;14.20;12.63;;;;;;;;;;5055842;28;20227;-79
2021/04/07 07:16:01;;;;;;;42.97;31.43;;;;;;;;;;5053582;28;20171;-79
2021/04/07 07:18:27;;;;;;;28.23;22.73;;;;;;;;;;5055566;28;20203;-79
2021/04/07 07:20:53;;;;;;;42.97;27.93;;;;;;;;;;5058038;28;20265;-79
2021/04/07 07:23:24;;;;;;;35.27;24.20;;;;;;;;;;5064171;28;20211;-79
2021/04/07 07:26:00;;;;;;;45.03;27.37;;;;;;;;;;5067774;28;20178;-79
2021/04/07 07:28:26;;;;;;;17.17;14.97;;;;;;;;;;5075609;28;20171;-79
2021/04/07 07:30:51;;;;;;;20.33;15.73;;;;;;;;;;5075356;28;20639;-79
2021/04/07 07:33:18;;;;;;;86.83;47.57;;;;;;;;;;5074859;28;20246;-79
2021/04/07 07:35:45;;;;;;;23.73;16.87;;;;;;;;;;5074898;28;20164;-79
2021/04/07 07:38:10;;;;;;;15.27;11.77;;;;;;;;;;5075417;28;20215;-80
2021/04/07 07:40:36;;;;;;;13.87;10.93;;;;;;;;;;5074861;28;20179;-80
2021/04/07 07:43:02;;;;;;;20.00;13.47;;;;;;;;;;5073882;28;20228;-80
2021/04/07 07:45:34;;;;;;;20.30;14.50;;;;;;;;;;5075366;28;20229;-80
2021/04/07 07:48:08;;;;;;;19.57;11.93;;;;;;;;;;5075614;28;20155;-80
2021/04/07 07:50:34;;;;;;;19.00;12.53;;;;;;;;;;5075334;28;20505;-80
2021/04/07 07:53:09;;;;;;;16.13;12.10;;;;;;;;;;5074891;28;20198;-80
2021/04/07 07:55:37;;;;;;;18.80;12.87;;;;;;;;;;5075283;28;20523;-79
2021/04/07 07:58:05;;;;;;;22.13;14.10;;;;;;;;;;5074432;28;20218;-80
2021/04/07 08:00:30;;;;;;;20.03;13.70;;;;;;;;;;5075305;28;20171;-80
2021/04/07 08:03:05;;;;;;;17.10;12.30;;;;;;;;;;5074358;28;20174;-80
2021/04/07 08:05:30;;;;;;;21.43;13.67;;;;;;;;;;5073259;28;20278;-81
2021/04/07 08:07:56;;;;;;;21.30;13.07;;;;;;;;;;5072851;28;20316;-80
2021/04/07 08:10:22;;;;;;;17.30;11.60;;;;;;;;;;5072708;28;20175;-80
2021/04/07 08:12:48;;;;;;;18.33;12.63;;;;;;;;;;5072858;28;20235;-81
2021/04/07 08:15:13;;;;;;;27.83;16.30;;;;;;;;;;5072786;28;20179;-80
2021/04/07 08:17:38;;;;;;;271.10;81.50;;;;;;;;;;5073082;28;20210;-79
2021/04/07 08:20:05;;;;;;;32.90;17.97;;;;;;;;;;5071645;28;20837;-79
2021/04/07 08:22:32;;;;;;;20.93;14.60;;;;;;;;;;5073150;28;20181;-80
2021/04/07 08:24:58;;;;;;;25.57;15.20;;;;;;;;;;5073052;28;20174;-80
2021/04/07 08:27:25;;;;;;;20.60;12.90;;;;;;;;;;5074557;28;20181;-80
2021/04/07 08:29:50;;;;;;;20.67;14.07;;;;;;;;;;5074495;28;20228;-79
2021/04/07 08:32:19;;;;;;;18.50;11.63;;;;;;;;;;5074193;28;20573;-79
2021/04/07 08:34:45;;;;;;;20.90;12.83;;;;;;;;;;5074079;28;20175;-80
2021/04/07 08:37:15;;;;;;;20.90;14.40;;;;;;;;;;5073117;28;20264;-80
2021/04/07 08:39:44;;;;;;;18.07;12.40;;;;;;;;;;5074364;28;20171;-80
2021/04/07 08:42:10;;;;;;;15.33;11.87;;;;;;;;;;5074598;28;20170;-80
2021/04/07 08:44:40;;;;;;;16.33;11.97;;;;;;;;;;5072747;28;20576;-79
2021/04/07 08:47:08;;;;;;;18.67;12.17;;;;;;;;;;5073751;28;20179;-80
2021/04/07 08:49:34;;;;;;;19.37;12.90;;;;;;;;;;5070511;28;20262;-79
2021/04/07 08:52:10;;;;;;;32.27;22.50;;;;;;;;;;5054157;28;20175;-79
2021/04/07 08:54:46;;;;;;;18.90;13.37;;;;;;;;;;5053758;28;20224;-79
2021/04/07 08:57:30;;;;;;;20.87;13.67;;;;;;;;;;5053710;28;20199;-79
2021/04/07 08:59:56;;;;;;;20.17;13.70;;;;;;;;;;5061331;28;20259;-80
2021/04/07 09:02:21;;;;;;;19.10;13.43;;;;;;;;;;5059666;28;20319;-79
2021/04/07 09:05:04;;;;;;;17.10;12.67;;;;;;;;;;5064461;28;20580;-80
2021/04/07 09:07:42;;;;;;;22.37;15.77;;;;;;;;;;5073387;28;20180;-80
2021/04/07 09:10:17;;;;;;;19.40;14.03;;;;;;;;;;5071708;28;20589;-80
2021/04/07 09:12:43;;;;;;;130.97;39.63;;;;;;;;;;5073348;28;20576;-79
2021/04/07 09:15:25;;;;;;;13.67;10.40;;;;;;;;;;5072668;28;20182;-79
2021/04/07 09:17:56;;;;;;;19.57;15.33;;;;;;;;;;5073444;28;20252;-80
2021/04/07 09:20:35;;;;;;;24.60;16.37;;;;;;;;;;5073618;28;20182;-80
2021/04/07 09:23:12;;;;;;;54.53;30.40;;;;;;;;;;5073992;28;20171;-79
2021/04/07 09:25:38;;;;;;;40.03;25.03;;;;;;;;;;5073488;28;20519;-79
2021/04/07 09:28:07;;;;;;;37.73;23.70;;;;;;;;;;5073440;28;20172;-80
2021/04/07 09:30:44;;;;;;;24.90;16.27;;;;;;;;;;5073220;28;20196;-80
2021/04/07 09:33:10;;;;;;;22.53;14.10;;;;;;;;;;5073632;28;20217;-80
2021/04/07 09:35:37;;;;;;;15.27;9.47;;;;;;;;;;5073358;28;20167;-80
2021/04/07 09:38:02;;;;;;;11.10;8.50;;;;;;;;;;5073336;28;20680;-80
2021/04/07 09:40:28;;;;;;;21.10;15.87;;;;;;;;;;5073152;28;20171;-80
2021/04/07 09:42:54;;;;;;;12.23;10.13;;;;;;;;;;5073107;28;20217;-80
2021/04/07 09:45:23;;;;;;;14.87;9.03;;;;;;;;;;5059300;28;20186;-80
2021/04/07 09:47:55;;;;;;;13.60;10.27;;;;;;;;;;5056547;28;20182;-79
2021/04/07 09:50:21;;;;;;;10.43;8.63;;;;;;;;;;5073303;28;20175;-80
2021/04/07 09:52:47;;;;;;;10.17;7.97;;;;;;;;;;5073095;28;20182;-80
2021/04/07 09:55:22;;;;;;;9.73;8.23;;;;;;;;;;5055355;28;20184;-80
2021/04/07 09:58:01;;;;;;;17.63;13.37;;;;;;;;;;5054215;28;20207;-80
2021/04/07 10:00:27;;;;;;;11.33;9.53;;;;;;;;;;5055291;28;20696;-80
2021/04/07 10:02:53;;;;;;;12.27;10.53;;;;;;;;;;5066085;28;20266;-79
2021/04/07 10:05:25;;;;;;;13.10;8.20;;;;;;;;;;5070293;28;20314;-80
2021/04/07 10:07:50;;;;;;;9.33;8.20;;;;;;;;;;5074567;28;20176;-80
2021/04/07 10:10:15;;;;;;;13.30;10.27;;;;;;;;;;5074294;28;20281;-80
2021/04/07 10:12:41;;;;;;;11.23;8.90;;;;;;;;;;5063742;28;20575;-80
2021/04/07 10:15:06;;;;;;;12.70;9.00;;;;;;;;;;5070162;28;20537;-80
2021/04/07 10:17:33;;;;;;;7.87;7.07;;;;;;;;;;5074048;28;20207;-80
2021/04/07 10:20:25;;;;;;;8.20;7.40;;;;;;;;;;5073934;28;20179;-80
2021/04/07 10:22:50;;;;;;;24.50;13.60;;;;;;;;;;5073883;28;20285;-80
2021/04/07 10:25:17;;;;;;;16.23;10.80;;;;;;;;;;5073520;28;20262;-80
2021/04/07 10:27:44;;;;;;;12.53;7.57;;;;;;;;;;5071525;28;20216;-80
2021/04/07 10:30:10;;;;;;;14.13;9.43;;;;;;;;;;5072692;28;20610;-80
2021/04/07 10:32:42;;;;;;;9.40;7.63;;;;;;;;;;5073832;28;20178;-80
2021/04/07 10:35:08;;;;;;;26.33;17.40;;;;;;;;;;5074993;28;20182;-81
2021/04/07 10:37:34;;;;;;;16.13;12.33;;;;;;;;;;5071410;28;20207;-81
2021/04/07 10:40:00;;;;;;;11.13;7.90;;;;;;;;;;5074085;28;20237;-80
2021/04/07 10:42:28;;;;;;;6.67;5.70;;;;;;;;;;5073217;28;20182;-81
2021/04/07 10:45:04;;;;;;;9.93;7.10;;;;;;;;;;5073204;28;20167;-80
2021/04/07 10:47:37;;;;;;;7.70;5.03;;;;;;;;;;5071628;28;20629;-81
2021/04/07 10:50:03;;;;;;;7.97;6.50;;;;;;;;;;5073751;28;20175;-80
2021/04/07 10:52:38;;;;;;;7.83;5.70;;;;;;;;;;5073702;28;20172;-80
2021/04/07 10:55:06;;;;;;;7.00;5.90;;;;;;;;;;5071798;28;20258;-81
2021/04/07 10:57:35;;;;;;;5.37;4.87;;;;;;;;;;5071152;28;20293;-81
2021/04/07 11:00:03;;;;;;;5.10;4.60;;;;;;;;;;5071267;28;20631;-81
2021/04/07 11:02:28;;;;;;;7.50;5.80;;;;;;;;;;5070294;28;20180;-81
2021/04/07 11:04:54;;;;;;;12.83;8.67;;;;;;;;;;5072743;28;20210;-80
2021/04/07 11:07:19;;;;;;;9.27;7.37;;;;;;;;;;5073897;28;20177;-80
2021/04/07 11:09:51;;;;;;;10.37;7.73;;;;;;;;;;5074233;28;20167;-80
2021/04/07 11:12:21;;;;;;;7.63;6.40;;;;;;;;;;5073566;28;20284;-80
2021/04/07 11:14:50;;;;;;;9.57;5.50;;;;;;;;;;5075641;28;20152;-80
2021/04/07 11:17:17;;;;;;;6.23;5.37;;;;;;;;;;5075700;28;20248;-80
2021/04/07 11:19:42;;;;;;;5.27;4.50;;;;;;;;;;5074412;28;20887;-80
2021/04/07 11:22:08;;;;;;;5.40;4.90;;;;;;;;;;5073912;28;20171;-80
2021/04/07 11:24:35;;;;;;;10.03;6.37;;;;;;;;;;5072570;28;20537;-80
2021/04/07 11:27:00;;;;;;;5.97;5.30;;;;;;;;;;5073715;28;20537;-80
2021/04/07 11:29:26;;;;;;;6.47;4.93;;;;;;;;;;5073024;28;20167;-80
2021/04/07 11:31:52;;;;;;;5.00;4.43;;;;;;;;;;5067332;28;20218;-81
2021/04/07 11:34:23;;;;;;;5.20;4.70;;;;;;;;;;5053652;28;20627;-78
2021/04/07 11:39:20;;;;;;;9.60;6.17;;;;;;;;;;5064666;28;20555;-79
2021/04/07 11:46:39;;;;;;;7.23;4.87;;;;;;;;;;5073256;28;20282;-78
2021/04/07 11:49:05;;;;;;;4.73;3.97;;;;;;;;;;5073258;28;20169;-79
2021/04/07 11:51:33;;;;;;;8.70;4.27;;;;;;;;;;5073185;28;20622;-78
2021/04/07 11:53:58;;;;;;;4.23;3.83;;;;;;;;;;5057603;28;20176;-78
2021/04/07 11:56:24;;;;;;;8.60;4.80;;;;;;;;;;5053295;28;20507;-79
2021/04/07 11:58:49;;;;;;;6.20;4.93;;;;;;;;;;5053425;28;20199;-79
2021/04/07 12:01:14;;;;;;;3.93;3.50;;;;;;;;;;5053627;28;20172;-78
2021/04/07 12:03:42;;;;;;;5.47;4.43;;;;;;;;;;5066710;28;20294;-78
2021/04/07 12:06:07;;;;;;;11.10;6.50;;;;;;;;;;5072248;28;20542;-79
2021/04/07 12:08:33;;;;;;;5.07;4.50;;;;;;;;;;5073318;28;20175;-78
2021/04/07 12:10:59;;;;;;;6.53;5.53;;;;;;;;;;5074459;28;20689;-78
2021/04/07 12:13:25;;;;;;;6.40;4.70;;;;;;;;;;5073535;28;20225;-79
2021/04/07 12:15:51;;;;;;;5.53;4.60;;;;;;;;;;5074406;28;20167;-79
2021/04/07 12:18:16;;;;;;;9.07;4.90;;;;;;;;;;5073936;28;20248;-80
2021/04/07 12:20:41;;;;;;;5.87;4.50;;;;;;;;;;5070393;28;20624;-80
2021/04/07 12:23:07;;;;;;;5.37;4.83;;;;;;;;;;5064101;28;20167;-80
2021/04/07 12:25:32;;;;;;;6.10;4.87;;;;;;;;;;5064163;28;20611;-79
2021/04/07 12:27:57;;;;;;;6.53;5.10;;;;;;;;;;5062865;28;20178;-80
2021/04/07 12:30:23;;;;;;;5.00;4.50;;;;;;;;;;5067393;28;20169;-80
2021/04/07 12:32:49;;;;;;;5.77;5.00;;;;;;;;;;5069982;28;20266;-79
2021/04/07 12:35:15;;;;;;;5.03;4.50;;;;;;;;;;5073979;28;20163;-80
2021/04/07 12:37:44;;;;;;;8.43;6.73;;;;;;;;;;5052012;28;20195;-79
2021/04/07 12:40:10;;;;;;;5.77;5.10;;;;;;;;;;5054332;28;20176;-79
2021/04/07 12:42:35;;;;;;;5.33;4.73;;;;;;;;;;5053974;28;20175;-79
2021/04/07 12:45:02;;;;;;;6.47;5.87;;;;;;;;;;5053948;28;20233;-78
2021/04/07 12:47:27;;;;;;;6.10;5.50;;;;;;;;;;5053794;28;20187;-79
2021/04/07 12:49:52;;;;;;;6.50;5.30;;;;;;;;;;5053785;28;20176;-79
2021/04/07 12:52:17;;;;;;;6.97;5.50;;;;;;;;;;5055601;28;20524;-79
2021/04/07 12:54:43;;;;;;;11.13;7.20;;;;;;;;;;5073079;28;20533;-79
2021/04/07 12:57:08;;;;;;;7.53;6.03;;;;;;;;;;5073481;28;20333;-79
2021/04/07 12:59:33;;;;;;;15.10;10.27;;;;;;;;;;5073464;28;20167;-79
2021/04/07 13:01:59;;;;;;;8.10;6.43;;;;;;;;;;5073811;28;20217;-79
2021/04/07 13:04:26;;;;;;;7.10;6.03;;;;;;;;;;5073962;28;20171;-79
2021/04/07 13:06:51;;;;;;;6.30;5.70;;;;;;;;;;5073350;28;20187;-79
2021/04/07 13:09:17;;;;;;;8.97;6.97;;;;;;;;;;5070906;28;20183;-79
2021/04/07 13:11:42;;;;;;;9.37;7.20;;;;;;;;;;5071696;28;20175;-80
2021/04/07 13:14:07;;;;;;;10.67;7.30;;;;;;;;;;5072045;28;20713;-80
2021/04/07 13:16:33;;;;;;;5.87;4.73;;;;;;;;;;5071871;28;20589;-79
2021/04/07 13:19:00;;;;;;;4.23;3.83;;;;;;;;;;5065712;28;20229;-80
2021/04/07 13:21:26;;;;;;;5.00;4.50;;;;;;;;;;5057174;28;20684;-80
2021/04/07 13:23:51;;;;;;;7.17;5.10;;;;;;;;;;5051965;28;20175;-79
2021/04/07 13:26:17;;;;;;;6.57;4.80;;;;;;;;;;5055049;28;20282;-79
2021/04/07 13:28:43;;;;;;;8.70;5.87;;;;;;;;;;5055982;28;20263;-79
2021/04/07 13:31:09;;;;;;;8.53;5.50;;;;;;;;;;5055849;28;20255;-79
2021/04/07 13:43:28;;;;;;;13.47;8.27;;;;;;;;;;5069660;28;20175;-79
2021/04/07 13:45:54;;;;;;;14.33;8.80;;;;;;;;;;5077604;28;20173;-79
2021/04/07 13:48:22;;;;;;;10.37;7.80;;;;;;;;;;5077170;28;20236;-79
2021/04/07 13:50:47;;;;;;;13.40;9.23;;;;;;;;;;5077339;28;20171;-79
2021/04/07 13:53:16;;;;;;;10.80;6.83;;;;;;;;;;5067697;28;20255;-79
2021/04/07 13:55:43;;;;;;;14.23;7.47;;;;;;;;;;5056816;28;20176;-79
2021/04/07 13:58:08;;;;;;;13.03;8.00;;;;;;;;;;5056698;28;20570;-79
2021/04/07 14:00:34;;;;;;;11.90;7.70;;;;;;;;;;5056774;28;20164;-79
2021/04/07 14:03:00;;;;;;;17.37;9.50;;;;;;;;;;5057122;28;20626;-79
2021/04/07 14:05:26;;;;;;;18.10;9.87;;;;;;;;;;5056414;28;20226;-79
2021/04/07 14:07:52;;;;;;;18.47;10.43;;;;;;;;;;5056940;28;20219;-79
2021/04/07 14:10:20;;;;;;;9.40;6.30;;;;;;;;;;5056353;28;20180;-79
2021/04/07 14:12:53;;;;;;;27.47;13.43;;;;;;;;;;5056992;28;20712;-79
2021/04/07 14:15:18;;;;;;;7.00;5.83;;;;;;;;;;5056535;28;20499;-79
2021/04/07 14:17:43;;;;;;;17.17;9.00;;;;;;;;;;5069576;28;20206;-78
2021/04/07 14:20:09;;;;;;;11.23;7.77;;;;;;;;;;5074770;28;20167;-78
2021/04/07 14:22:35;;;;;;;13.00;8.30;;;;;;;;;;5075232;28;20179;-78
2021/04/07 14:25:00;;;;;;;13.33;8.87;;;;;;;;;;5074551;28;20170;-78
2021/04/07 14:27:26;;;;;;;12.27;8.57;;;;;;;;;;5074778;28;20171;-78
2021/04/07 14:29:51;;;;;;;12.87;8.30;;;;;;;;;;5076018;28;20170;-78
2021/04/07 14:32:17;;;;;;;9.97;6.63;;;;;;;;;;5076312;28;20163;-78
2021/04/07 14:34:45;;;;;;;15.90;8.53;;;;;;;;;;5075881;28;20177;-78
2021/04/07 14:37:10;;;;;;;21.40;10.73;;;;;;;;;;5071491;28;20207;-79